Time;durP1;ratioP1;P1;durP2;ratioP2;P2;SDS_P1;SDS_P2;PMS_P1;PMS_P2;Temp;Humidity;BMP_temperature;BMP_pressure;BME280_temperature;BME280_humidity;BME280_pressure;Samples;Min_cycle;Max_cycle;Signal;HPM_P1;HPM_P2
2023/12/22 00:01:16;;;;;;;;;;;;;;;;;;5046666;28;20373;-62
2023/12/22 00:03:42;;;;;;;;;;;;;;;;;;5047723;28;19992;-63
2023/12/22 00:06:08;;;;;;;;;;;;;;;;;;5047923;28;20031;-63
2023/12/22 00:08:34;;;;;;;;;;;;;;;;;;5051634;28;19971;-63
2023/12/22 00:11:00;;;;;;;;;;;;;;;;;;5051680;28;19963;-64
2023/12/22 00:13:26;;;;;;;;;;;;;;;;;;5052084;28;20003;-64
2023/12/22 00:15:51;;;;;;;;;;;;;;;;;;5052128;28;19915;-64
2023/12/22 00:18:17;;;;;;;;;;;;;;;;;;5046880;28;20388;-65
2023/12/22 00:20:43;;;;;;;;;;;;;;;;;;5041861;28;19962;-64
2023/12/22 00:23:09;;;;;;;;;;;;;;;;;;5048584;28;20396;-65
2023/12/22 00:25:35;;;;;;;;;;;;;;;;;;5057649;28;19913;-64
2023/12/22 00:28:01;;;;;;;;;;;;;;;;;;5052207;28;20356;-64
2023/12/22 00:30:27;;;;;;;;;;;;;;;;;;5041006;28;19917;-64
2023/12/22 00:32:53;;;;;;;;;;;;;;;;;;5032371;28;19975;-65
2023/12/22 00:35:19;;;;;;;;;;;;;;;;;;5051660;28;20392;-65
2023/12/22 00:37:45;;;;;;;;;;;;;;;;;;5049168;28;19949;-65
2023/12/22 00:40:10;;;;;;;;;;;;;;;;;;5053623;28;20319;-65
2023/12/22 00:42:36;;;;;;;;;;;;;;;;;;5056112;28;19999;-65
2023/12/22 00:45:02;;;;;;;;;;;;;;;;;;5056029;28;20008;-65
2023/12/22 00:47:28;;;;;;;;;;;;;;;;;;5052354;28;19912;-65
2023/12/22 00:49:54;;;;;;;;;;;;;;;;;;5044718;28;20020;-65
2023/12/22 00:52:20;;;;;;;;;;;;;;;;;;5045168;28;19935;-65
2023/12/22 00:54:47;;;;;;;;;;;;;;;;;;5055180;28;20336;-65
2023/12/22 00:57:13;;;;;;;;;;;;;;;;;;5055842;28;20003;-65
2023/12/22 00:59:45;;;;;;;;;;;;;;;;;;5055174;28;19913;-65
2023/12/22 01:02:11;;;;;;;;;;;;;;;;;;5055568;28;19909;-65
2023/12/22 01:04:37;;;;;;;;;;;;;;;;;;5055548;28;20261;-65
2023/12/22 01:07:02;;;;;;;;;;;;;;;;;;5053736;28;19966;-65
2023/12/22 01:09:28;;;;;;;;;;;;;;;;;;5048307;28;20007;-65
2023/12/22 01:11:54;;;;;;;;;;;;;;;;;;5053491;28;19927;-65
2023/12/22 01:14:20;;;;;;;;;;;;;;;;;;5055344;28;19917;-65
2023/12/22 01:16:46;;;;;;;;;;;;;;;;;;5055152;28;20269;-65
2023/12/22 01:19:12;;;;;;;;;;;;;;;;;;5054707;28;19975;-65
2023/12/22 01:21:38;;;;;;;;;;;;;;;;;;5053429;28;19967;-65
2023/12/22 01:24:04;;;;;;;;;;;;;;;;;;5055308;28;19916;-65
2023/12/22 01:26:30;;;;;;;;;;;;;;;;;;5055068;28;20004;-65
2023/12/22 01:28:56;;;;;;;;;;;;;;;;;;5044909;28;19964;-65
2023/12/22 01:31:22;;;;;;;;;;;;;;;;;;5054907;28;20395;-65
2023/12/22 01:33:48;;;;;;;;;;;;;;;;;;5055004;28;19913;-65
2023/12/22 01:36:14;;;;;;;;;;;;;;;;;;5054975;28;19964;-65
2023/12/22 01:38:40;;;;;;;;;;;;;;;;;;5052540;28;19990;-65
2023/12/22 01:41:06;;;;;;;;;;;;;;;;;;5052173;28;20376;-66
2023/12/22 01:43:32;;;;;;;;;;;;;;;;;;5054120;28;19913;-66
2023/12/22 01:45:58;;;;;;;;;;;;;;;;;;5054557;28;19916;-66
2023/12/22 01:48:24;;;;;;;;;;;;;;;;;;5051335;28;20392;-66
2023/12/22 01:50:50;;;;;;;;;;;;;;;;;;5054029;28;19940;-66
2023/12/22 01:53:16;;;;;;;;;;;;;;;;;;5035036;28;20397;-66
2023/12/22 01:55:42;;;;;;;;;;;;;;;;;;5034859;28;19909;-67
2023/12/22 01:58:08;;;;;;;;;;;;;;;;;;5034804;28;19909;-66
2023/12/22 02:00:34;;;;;;;;;;;;;;;;;;5035309;28;20296;-66
2023/12/22 02:03:00;;;;;;;;;;;;;;;;;;5037677;28;19920;-65
2023/12/22 02:05:26;;;;;;;;;;;;;;;;;;5053002;28;19971;-66
2023/12/22 02:07:52;;;;;;;;;;;;;;;;;;5054326;28;19948;-66
2023/12/22 02:10:18;;;;;;;;;;;;;;;;;;5053484;28;20344;-66
2023/12/22 02:12:44;;;;;;;;;;;;;;;;;;5054320;28;20003;-66
2023/12/22 02:15:09;;;;;;;;;;;;;;;;;;5053759;28;19956;-66
2023/12/22 02:17:35;;;;;;;;;;;;;;;;;;5053451;28;19992;-66
2023/12/22 02:20:01;;;;;;;;;;;;;;;;;;5044349;28;20399;-66
2023/12/22 02:22:27;;;;;;;;;;;;;;;;;;5054031;28;19919;-66
2023/12/22 02:24:53;;;;;;;;;;;;;;;;;;5054112;28;19913;-66
2023/12/22 02:27:19;;;;;;;;;;;;;;;;;;5053941;28;20402;-66
2023/12/22 02:29:45;;;;;;;;;;;;;;;;;;5053087;28;19916;-66
2023/12/22 02:32:11;;;;;;;;;;;;;;;;;;5053909;28;20384;-66
2023/12/22 02:34:37;;;;;;;;;;;;;;;;;;5037607;28;19953;-66
2023/12/22 02:37:03;;;;;;;;;;;;;;;;;;5033779;28;20373;-66
2023/12/22 02:39:29;;;;;;;;;;;;;;;;;;5041893;28;19952;-66
2023/12/22 02:41:54;;;;;;;;;;;;;;;;;;5053859;28;19952;-66
2023/12/22 02:44:20;;;;;;;;;;;;;;;;;;5051617;28;19962;-65
2023/12/22 02:46:46;;;;;;;;;;;;;;;;;;5051851;28;19917;-66
2023/12/22 02:49:13;;;;;;;;;;;;;;;;;;5042990;28;19944;-64
2023/12/22 02:51:39;;;;;;;;;;;;;;;;;;5052832;28;19909;-64
2023/12/22 02:54:05;;;;;;;;;;;;;;;;;;5053634;28;19955;-65
2023/12/22 02:56:30;;;;;;;;;;;;;;;;;;5053421;28;20287;-64
2023/12/22 02:58:56;;;;;;;;;;;;;;;;;;5050124;28;19923;-65
2023/12/22 03:01:22;;;;;;;;;;;;;;;;;;5052881;28;19913;-64
2023/12/22 03:03:48;;;;;;;;;;;;;;;;;;5046380;28;20418;-65
2023/12/22 03:06:14;;;;;;;;;;;;;;;;;;5050275;28;19952;-65
2023/12/22 03:08:40;;;;;;;;;;;;;;;;;;5052441;28;20351;-64
2023/12/22 03:11:06;;;;;;;;;;;;;;;;;;5052708;28;19931;-64
2023/12/22 03:13:32;;;;;;;;;;;;;;;;;;5052910;28;20007;-64
2023/12/22 03:15:58;;;;;;;;;;;;;;;;;;5051740;28;19919;-64
2023/12/22 03:18:23;;;;;;;;;;;;;;;;;;5053138;28;19909;-65
2023/12/22 03:20:49;;;;;;;;;;;;;;;;;;5067182;28;19913;-65
2023/12/22 03:23:15;;;;;;;;;;;;;;;;;;5053019;28;19995;-64
2023/12/22 03:25:41;;;;;;;;;;;;;;;;;;5044813;28;20031;-64
2023/12/22 03:28:08;;;;;;;;;;;;;;;;;;5033025;28;20361;-64
2023/12/22 03:30:35;;;;;;;;;;;;;;;;;;5043722;28;19956;-65
2023/12/22 03:33:01;;;;;;;;;;;;;;;;;;5050731;28;20273;-64
2023/12/22 03:35:27;;;;;;;;;;;;;;;;;;5044645;28;20022;-65
2023/12/22 03:37:53;;;;;;;;;;;;;;;;;;5052797;28;19913;-65
2023/12/22 03:40:19;;;;;;;;;;;;;;;;;;5050879;28;20355;-64
2023/12/22 03:42:45;;;;;;;;;;;;;;;;;;5051060;28;19952;-64
2023/12/22 03:45:10;;;;;;;;;;;;;;;;;;5051004;28;20392;-64
2023/12/22 03:47:37;;;;;;;;;;;;;;;;;;5050818;28;19961;-64
2023/12/22 03:50:02;;;;;;;;;;;;;;;;;;5049677;28;19920;-61
2023/12/22 03:52:28;;;;;;;;;;;;;;;;;;5050432;28;19909;-61
2023/12/22 03:54:54;;;;;;;;;;;;;;;;;;5047788;28;20012;-60
2023/12/22 03:57:20;;;;;;;;;;;;;;;;;;5032575;28;19913;-61
2023/12/22 03:59:46;;;;;;;;;;;;;;;;;;5032150;28;19967;-66
2023/12/22 04:02:12;;;;;;;;;;;;;;;;;;5032463;28;19944;-66
2023/12/22 04:04:38;;;;;;;;;;;;;;;;;;5035071;28;20004;-66
2023/12/22 04:07:04;;;;;;;;;;;;;;;;;;5050321;28;20397;-66
2023/12/22 04:09:30;;;;;;;;;;;;;;;;;;5050355;28;19955;-66
2023/12/22 04:11:55;;;;;;;;;;;;;;;;;;5031960;28;20358;-66
2023/12/22 04:14:21;;;;;;;;;;;;;;;;;;5036353;28;19921;-66
2023/12/22 04:16:47;;;;;;;;;;;;;;;;;;5051559;28;20385;-65
2023/12/22 04:19:13;;;;;;;;;;;;;;;;;;5050701;28;19919;-65
2023/12/22 04:21:39;;;;;;;;;;;;;;;;;;5052388;28;19908;-65
2023/12/22 04:24:05;;;;;;;;;;;;;;;;;;5049996;28;20359;-66
2023/12/22 04:26:31;;;;;;;;;;;;;;;;;;5039551;28;19917;-65
2023/12/22 04:28:57;;;;;;;;;;;;;;;;;;5032248;28;20377;-65
2023/12/22 04:31:23;;;;;;;;;;;;;;;;;;5047081;28;19992;-65
2023/12/22 04:33:49;;;;;;;;;;;;;;;;;;5052052;28;20283;-65
2023/12/22 04:36:15;;;;;;;;;;;;;;;;;;5038354;28;20004;-65
2023/12/22 04:38:41;;;;;;;;;;;;;;;;;;5030728;28;19913;-65
2023/12/22 04:41:07;;;;;;;;;;;;;;;;;;5043638;28;19960;-65
2023/12/22 04:43:32;;;;;;;;;;;;;;;;;;5048899;28;19959;-64
2023/12/22 04:45:58;;;;;;;;;;;;;;;;;;5044003;28;20419;-64
2023/12/22 04:48:24;;;;;;;;;;;;;;;;;;5040911;28;19917;-65
2023/12/22 04:50:50;;;;;;;;;;;;;;;;;;5049059;28;19908;-64
2023/12/22 04:53:16;;;;;;;;;;;;;;;;;;5049346;28;20023;-64
2023/12/22 04:55:42;;;;;;;;;;;;;;;;;;5046094;28;19921;-64
2023/12/22 04:58:08;;;;;;;;;;;;;;;;;;5033455;28;19917;-64
2023/12/22 05:00:34;;;;;;;;;;;;;;;;;;5031863;28;20001;-64
2023/12/22 05:03:00;;;;;;;;;;;;;;;;;;5031558;28;19917;-63
2023/12/22 05:05:25;;;;;;;;;;;;;;;;;;5048459;28;20377;-63
2023/12/22 05:07:51;;;;;;;;;;;;;;;;;;5045763;28;19947;-63
2023/12/22 05:10:17;;;;;;;;;;;;;;;;;;5036649;28;20464;-60
2023/12/22 05:12:43;;;;;;;;;;;;;;;;;;5043658;28;19913;-61
2023/12/22 05:15:09;;;;;;;;;;;;;;;;;;5037379;28;22659;-59
2023/12/22 05:17:35;;;;;;;;;;;;;;;;;;5059541;28;19917;-60
2023/12/22 05:20:01;;;;;;;;;;;;;;;;;;5049403;28;19955;-59
2023/12/22 05:22:29;;;;;;;;;;;;;;;;;;5043246;28;20004;-60
2023/12/22 05:24:55;;;;;;;;;;;;;;;;;;5053329;28;19923;-59
2023/12/22 05:27:21;;;;;;;;;;;;;;;;;;5045691;28;20003;-59
2023/12/22 05:29:47;;;;;;;;;;;;;;;;;;5043633;28;20714;-59
2023/12/22 05:32:13;;;;;;;;;;;;;;;;;;5045643;28;19913;-59
2023/12/22 05:34:39;;;;;;;;;;;;;;;;;;5039109;28;19975;-61
2023/12/22 05:37:05;;;;;;;;;;;;;;;;;;5048120;28;19917;-59
2023/12/22 05:39:31;;;;;;;;;;;;;;;;;;5048421;28;19909;-60
2023/12/22 05:41:57;;;;;;;;;;;;;;;;;;5040350;28;20416;-59
2023/12/22 05:44:24;;;;;;;;;;;;;;;;;;5053814;28;19912;-59
2023/12/22 05:46:50;;;;;;;;;;;;;;;;;;5051340;28;20276;-59
2023/12/22 05:49:16;;;;;;;;;;;;;;;;;;5045082;28;19920;-60
2023/12/22 05:51:42;;;;;;;;;;;;;;;;;;5041582;28;19916;-61
2023/12/22 05:54:08;;;;;;;;;;;;;;;;;;5047583;28;19928;-60
2023/12/22 05:56:34;;;;;;;;;;;;;;;;;;5045959;28;20006;-59
2023/12/22 05:59:00;;;;;;;;;;;;;;;;;;5050629;28;19963;-59
2023/12/22 06:01:26;;;;;;;;;;;;;;;;;;5051230;28;20395;-61
2023/12/22 06:03:53;;;;;;;;;;;;;;;;;;5046357;28;19913;-60
2023/12/22 06:06:19;;;;;;;;;;;;;;;;;;5042781;28;19917;-59
2023/12/22 06:08:45;;;;;;;;;;;;;;;;;;5047260;28;19979;-59
2023/12/22 06:11:11;;;;;;;;;;;;;;;;;;5052532;28;19925;-59
2023/12/22 06:13:37;;;;;;;;;;;;;;;;;;5042311;28;20338;-59
2023/12/22 06:16:03;;;;;;;;;;;;;;;;;;5048306;28;20003;-59
2023/12/22 06:18:29;;;;;;;;;;;;;;;;;;5048794;28;19992;-59
2023/12/22 06:20:55;;;;;;;;;;;;;;;;;;5048840;28;20375;-65
2023/12/22 06:23:20;;;;;;;;;;;;;;;;;;5045167;28;19917;-65
2023/12/22 06:25:47;;;;;;;;;;;;;;;;;;5053020;28;20467;-65
2023/12/22 06:28:16;;;;;;;;;;;;;;;;;;5050196;28;19913;-65
2023/12/22 06:30:42;;;;;;;;;;;;;;;;;;5045605;28;20358;-65
2023/12/22 06:33:08;;;;;;;;;;;;;;;;;;5044066;28;20308;-65
2023/12/22 06:35:35;;;;;;;;;;;;;;;;;;5047272;28;19974;-65
2023/12/22 06:38:03;;;;;;;;;;;;;;;;;;5049829;28;19913;-65
2023/12/22 06:40:29;;;;;;;;;;;;;;;;;;5041017;28;19936;-65
2023/12/22 06:42:55;;;;;;;;;;;;;;;;;;5053542;28;20355;-65
2023/12/22 06:45:21;;;;;;;;;;;;;;;;;;5050904;28;19975;-65
2023/12/22 06:47:47;;;;;;;;;;;;;;;;;;5050442;28;20004;-64
2023/12/22 06:50:13;;;;;;;;;;;;;;;;;;5042240;28;19919;-65
2023/12/22 06:52:39;;;;;;;;;;;;;;;;;;5050050;28;19992;-65
2023/12/22 06:55:05;;;;;;;;;;;;;;;;;;5039863;28;19957;-65
2023/12/22 06:57:31;;;;;;;;;;;;;;;;;;5046500;28;19990;-65
2023/12/22 06:59:57;;;;;;;;;;;;;;;;;;5040284;28;19920;-66
2023/12/22 07:02:23;;;;;;;;;;;;;;;;;;5039994;28;19956;-65
2023/12/22 07:05:07;;;;;;;;;;;;;;;;;;5046238;28;19959;-65
2023/12/22 07:07:33;;;;;;;;;;;;;;;;;;5049981;28;19916;-65
2023/12/22 07:09:59;;;;;;;;;;;;;;;;;;5040600;28;19962;-66
2023/12/22 07:12:24;;;;;;;;;;;;;;;;;;5056692;28;19912;-65
2023/12/22 07:14:50;;;;;;;;;;;;;;;;;;5032901;28;19953;-65
2023/12/22 07:17:16;;;;;;;;;;;;;;;;;;5034029;28;20371;-65
2023/12/22 07:19:42;;;;;;;;;;;;;;;;;;5044868;28;19915;-65
2023/12/22 07:22:08;;;;;;;;;;;;;;;;;;5045390;28;19957;-65
2023/12/22 07:24:34;;;;;;;;;;;;;;;;;;5045877;28;19912;-65
2023/12/22 07:27:00;;;;;;;;;;;;;;;;;;5048136;28;19916;-65
2023/12/22 07:29:26;;;;;;;;;;;;;;;;;;5039256;28;19908;-65
2023/12/22 07:31:52;;;;;;;;;;;;;;;;;;5038312;28;20007;-65
2023/12/22 07:34:18;;;;;;;;;;;;;;;;;;5044731;28;19921;-65
2023/12/22 07:36:46;;;;;;;;;;;;;;;;;;5044768;28;21510;-65
2023/12/22 07:39:12;;;;;;;;;;;;;;;;;;5045248;28;20376;-65
2023/12/22 07:41:37;;;;;;;;;;;;;;;;;;5036469;28;19944;-65
2023/12/22 07:44:03;;;;;;;;;;;;;;;;;;5046500;28;19944;-65
2023/12/22 07:46:30;;;;;;;;;;;;;;;;;;5038101;28;19909;-64
2023/12/22 07:48:56;;;;;;;;;;;;;;;;;;5045351;28;20605;-65
2023/12/22 07:51:22;;;;;;;;;;;;;;;;;;5042223;28;19954;-65
2023/12/22 07:53:48;;;;;;;;;;;;;;;;;;5045517;28;19920;-65
2023/12/22 07:56:14;;;;;;;;;;;;;;;;;;5051529;28;19920;-65
2023/12/22 07:58:40;;;;;;;;;;;;;;;;;;5042517;28;20285;-65
2023/12/22 08:01:06;;;;;;;;;;;;;;;;;;5042372;28;19959;-65
2023/12/22 08:03:32;;;;;;;;;;;;;;;;;;5047700;28;19909;-66
2023/12/22 08:05:57;;;;;;;;;;;;;;;;;;5037964;28;19909;-65
2023/12/22 08:08:23;;;;;;;;;;;;;;;;;;5042961;28;20296;-65
2023/12/22 08:10:49;;;;;;;;;;;;;;;;;;5044409;28;19959;-65
2023/12/22 08:13:16;;;;;;;;;;;;;;;;;;5051870;28;19912;-65
2023/12/22 08:15:42;;;;;;;;;;;;;;;;;;5042952;28;19921;-65
2023/12/22 08:18:08;;;;;;;;;;;;;;;;;;5042847;28;20370;-66
2023/12/22 08:20:34;;;;;;;;;;;;;;;;;;5044518;28;19908;-65
2023/12/22 08:23:00;;;;;;;;;;;;;;;;;;5040277;28;19919;-66
2023/12/22 08:25:26;;;;;;;;;;;;;;;;;;5049416;28;20207;-65
2023/12/22 08:27:52;;;;;;;;;;;;;;;;;;5039906;28;19996;-65
2023/12/22 08:30:18;;;;;;;;;;;;;;;;;;5035930;28;19920;-63
2023/12/22 08:32:44;;;;;;;;;;;;;;;;;;5031266;28;19928;-64
2023/12/22 08:35:10;;;;;;;;;;;;;;;;;;5033202;28;19995;-64
2023/12/22 08:37:37;;;;;;;;;;;;;;;;;;5050019;28;19925;-64
2023/12/22 08:40:03;;;;;;;;;;;;;;;;;;5038416;28;19909;-65
2023/12/22 08:42:30;;;;;;;;;;;;;;;;;;5039890;28;20364;-65
2023/12/22 08:44:56;;;;;;;;;;;;;;;;;;5047608;28;20336;-65
2023/12/22 08:47:22;;;;;;;;;;;;;;;;;;5047137;28;19959;-65
2023/12/22 08:49:48;;;;;;;;;;;;;;;;;;5033432;28;19909;-65
2023/12/22 08:52:13;;;;;;;;;;;;;;;;;;5050365;28;19962;-65
2023/12/22 08:54:39;;;;;;;;;;;;;;;;;;5036112;28;19917;-65
2023/12/22 08:57:05;;;;;;;;;;;;;;;;;;5051347;28;20349;-65
2023/12/22 08:59:31;;;;;;;;;;;;;;;;;;5039634;28;20020;-65
2023/12/22 09:01:57;;;;;;;;;;;;;;;;;;5045977;28;20349;-65
2023/12/22 09:04:23;;;;;;;;;;;;;;;;;;5045762;28;19963;-65
2023/12/22 09:06:49;;;;;;;;;;;;;;;;;;5043225;28;20439;-66
2023/12/22 09:09:15;;;;;;;;;;;;;;;;;;5048154;28;20035;-65
2023/12/22 09:11:41;;;;;;;;;;;;;;;;;;5059891;28;19924;-65
2023/12/22 09:14:10;;;;;;;;;;;;;;;;;;5058408;28;19924;-65
2023/12/22 09:16:35;;;;;;;;;;;;;;;;;;5042422;28;20321;-65
2023/12/22 09:19:01;;;;;;;;;;;;;;;;;;5050737;28;19960;-65
2023/12/22 09:21:27;;;;;;;;;;;;;;;;;;5042092;28;19909;-65
2023/12/22 09:23:54;;;;;;;;;;;;;;;;;;5043930;28;19913;-65
2023/12/22 09:26:19;;;;;;;;;;;;;;;;;;5042244;28;19913;-65
2023/12/22 09:28:45;;;;;;;;;;;;;;;;;;5041069;28;20376;-65
2023/12/22 09:31:14;;;;;;;;;;;;;;;;;;5045952;28;19921;-65
2023/12/22 09:33:40;;;;;;;;;;;;;;;;;;5052173;28;19917;-65
2023/12/22 09:36:06;;;;;;;;;;;;;;;;;;5042578;28;19913;-66
2023/12/22 09:38:32;;;;;;;;;;;;;;;;;;5040851;28;19952;-65
2023/12/22 09:40:58;;;;;;;;;;;;;;;;;;5053362;28;20011;-64
2023/12/22 09:43:24;;;;;;;;;;;;;;;;;;5040878;28;19932;-64
2023/12/22 09:45:50;;;;;;;;;;;;;;;;;;5046091;28;19913;-64
2023/12/22 09:48:17;;;;;;;;;;;;;;;;;;5045774;28;20360;-64
2023/12/22 09:50:43;;;;;;;;;;;;;;;;;;5041685;28;20388;-64
2023/12/22 09:53:09;;;;;;;;;;;;;;;;;;5040658;28;19909;-64
2023/12/22 09:55:34;;;;;;;;;;;;;;;;;;5045606;28;19923;-64
2023/12/22 09:58:00;;;;;;;;;;;;;;;;;;5056838;28;19971;-64
2023/12/22 10:00:27;;;;;;;;;;;;;;;;;;5043113;28;20373;-64
2023/12/22 10:02:53;;;;;;;;;;;;;;;;;;5047036;28;20391;-64
2023/12/22 10:05:19;;;;;;;;;;;;;;;;;;5043385;28;19909;-64
2023/12/22 10:07:45;;;;;;;;;;;;;;;;;;5046411;28;19909;-64
2023/12/22 10:10:11;;;;;;;;;;;;;;;;;;5032403;28;20453;-64
2023/12/22 10:12:37;;;;;;;;;;;;;;;;;;5057988;28;20012;-64
2023/12/22 10:15:03;;;;;;;;;;;;;;;;;;5032803;28;19923;-63
2023/12/22 10:17:29;;;;;;;;;;;;;;;;;;5049883;28;19917;-63
2023/12/22 10:19:54;;;;;;;;;;;;;;;;;;5046500;28;19913;-63
2023/12/22 10:22:23;;;;;;;;;;;;;;;;;;5036517;28;20352;-64
2023/12/22 10:24:52;;;;;;;;;;;;;;;;;;5042920;28;20293;-63
2023/12/22 10:27:24;;;;;;;;;;;;;;;;;;5047728;28;19915;-64
2023/12/22 10:29:50;;;;;;;;;;;;;;;;;;5049670;28;19913;-64
2023/12/22 10:32:16;;;;;;;;;;;;;;;;;;5039748;28;19943;-64
2023/12/22 10:34:42;;;;;;;;;;;;;;;;;;5041071;28;19960;-64
2023/12/22 10:37:08;;;;;;;;;;;;;;;;;;5051021;28;19913;-63
2023/12/22 10:39:34;;;;;;;;;;;;;;;;;;5044421;28;19966;-63
2023/12/22 10:42:00;;;;;;;;;;;;;;;;;;5053008;28;19999;-64
2023/12/22 10:44:26;;;;;;;;;;;;;;;;;;5041383;28;19920;-64
2023/12/22 10:46:53;;;;;;;;;;;;;;;;;;5036887;28;20062;-63
2023/12/22 10:49:19;;;;;;;;;;;;;;;;;;5051276;28;20296;-65
2023/12/22 10:51:44;;;;;;;;;;;;;;;;;;5047020;28;19958;-65
2023/12/22 10:54:10;;;;;;;;;;;;;;;;;;5043534;28;19958;-66
2023/12/22 10:56:36;;;;;;;;;;;;;;;;;;5038700;28;20345;-65
2023/12/22 10:59:03;;;;;;;;;;;;;;;;;;5051396;28;19913;-65
2023/12/22 11:01:37;;;;;;;;;;;;;;;;;;5038704;28;19909;-65
2023/12/22 11:04:03;;;;;;;;;;;;;;;;;;5051044;28;20349;-65
2023/12/22 11:06:29;;;;;;;;;;;;;;;;;;5039591;28;19952;-65
2023/12/22 11:08:55;;;;;;;;;;;;;;;;;;5051084;28;20000;-65
2023/12/22 11:11:21;;;;;;;;;;;;;;;;;;5040421;28;20288;-65
2023/12/22 11:13:46;;;;;;;;;;;;;;;;;;5053405;28;19960;-65
2023/12/22 11:16:13;;;;;;;;;;;;;;;;;;5045824;28;20288;-65
2023/12/22 11:18:38;;;;;;;;;;;;;;;;;;5044396;28;19908;-65
2023/12/22 11:21:04;;;;;;;;;;;;;;;;;;5040567;28;19928;-65
2023/12/22 11:23:30;;;;;;;;;;;;;;;;;;5052072;28;19919;-65
2023/12/22 11:25:56;;;;;;;;;;;;;;;;;;5038843;28;20101;-65
2023/12/22 11:28:22;;;;;;;;;;;;;;;;;;5033665;28;19956;-65
2023/12/22 11:30:50;;;;;;;;;;;;;;;;;;5045235;28;19944;-65
2023/12/22 11:33:16;;;;;;;;;;;;;;;;;;5042983;28;19913;-65
2023/12/22 11:35:42;;;;;;;;;;;;;;;;;;5038522;28;20428;-65
2023/12/22 11:38:08;;;;;;;;;;;;;;;;;;5040921;28;19999;-65
2023/12/22 11:40:34;;;;;;;;;;;;;;;;;;5036563;28;19913;-65
2023/12/22 11:43:00;;;;;;;;;;;;;;;;;;5030694;28;19920;-66
2023/12/22 11:45:26;;;;;;;;;;;;;;;;;;5036387;28;20003;-65
2023/12/22 11:47:52;;;;;;;;;;;;;;;;;;5047796;28;20025;-65
2023/12/22 11:50:20;;;;;;;;;;;;;;;;;;5048564;28;19947;-65
2023/12/22 11:52:46;;;;;;;;;;;;;;;;;;5040600;28;19917;-65
2023/12/22 11:55:11;;;;;;;;;;;;;;;;;;5045419;28;20454;-65
2023/12/22 11:57:37;;;;;;;;;;;;;;;;;;5055862;28;19913;-64
2023/12/22 12:00:06;;;;;;;;;;;;;;;;;;5048254;28;20236;-61
2023/12/22 12:02:32;;;;;;;;;;;;;;;;;;5037656;28;20292;-59
2023/12/22 12:05:01;;;;;;;;;;;;;;;;;;5034805;28;19909;-60
2023/12/22 12:07:27;;;;;;;;;;;;;;;;;;5044971;28;19913;-59
2023/12/22 12:09:53;;;;;;;;;;;;;;;;;;5038490;28;19928;-62
2023/12/22 12:12:19;;;;;;;;;;;;;;;;;;5056120;28;20007;-62
2023/12/22 12:14:45;;;;;;;;;;;;;;;;;;5047547;28;20280;-62
2023/12/22 12:17:11;;;;;;;;;;;;;;;;;;5040940;28;19919;-63
2023/12/22 12:19:37;;;;;;;;;;;;;;;;;;5048152;28;20011;-63
2023/12/22 12:22:03;;;;;;;;;;;;;;;;;;5050385;28;19948;-63
2023/12/22 12:24:29;;;;;;;;;;;;;;;;;;5039123;28;19999;-63
2023/12/22 12:26:55;;;;;;;;;;;;;;;;;;5038053;28;19916;-63
2023/12/22 12:29:21;;;;;;;;;;;;;;;;;;5043270;28;20373;-62
2023/12/22 12:31:47;;;;;;;;;;;;;;;;;;5034527;28;20015;-62
2023/12/22 12:34:14;;;;;;;;;;;;;;;;;;5049340;28;20275;-62
2023/12/22 12:36:40;;;;;;;;;;;;;;;;;;5051788;28;20280;-62
2023/12/22 12:39:09;;;;;;;;;;;;;;;;;;5042632;28;19909;-62
2023/12/22 12:41:35;;;;;;;;;;;;;;;;;;5054284;28;19909;-62
2023/12/22 12:44:01;;;;;;;;;;;;;;;;;;5045428;28;19919;-63
2023/12/22 12:46:27;;;;;;;;;;;;;;;;;;5050566;28;20396;-63
2023/12/22 12:48:53;;;;;;;;;;;;;;;;;;5051164;28;19969;-62
2023/12/22 12:51:19;;;;;;;;;;;;;;;;;;5048144;28;19921;-63
2023/12/22 12:53:44;;;;;;;;;;;;;;;;;;5052459;28;19962;-62
2023/12/22 12:56:13;;;;;;;;;;;;;;;;;;5045975;28;19920;-63
2023/12/22 12:58:41;;;;;;;;;;;;;;;;;;5051580;28;20361;-62
2023/12/22 13:01:07;;;;;;;;;;;;;;;;;;5050347;28;19921;-63
2023/12/22 13:03:32;;;;;;;;;;;;;;;;;;5043158;28;19947;-62
2023/12/22 13:05:58;;;;;;;;;;;;;;;;;;5046162;28;19912;-63
2023/12/22 13:08:24;;;;;;;;;;;;;;;;;;5042461;28;19963;-62
2023/12/22 13:10:50;;;;;;;;;;;;;;;;;;5041629;28;19990;-63
2023/12/22 13:13:16;;;;;;;;;;;;;;;;;;5056053;28;19909;-63
2023/12/22 13:15:42;;;;;;;;;;;;;;;;;;5050559;28;20377;-63
2023/12/22 13:18:08;;;;;;;;;;;;;;;;;;5045189;28;19909;-63
2023/12/22 13:20:35;;;;;;;;;;;;;;;;;;5044332;28;19916;-63
2023/12/22 13:23:01;;;;;;;;;;;;;;;;;;5045060;28;19966;-63
2023/12/22 13:25:27;;;;;;;;;;;;;;;;;;5048010;28;19927;-63
2023/12/22 13:27:55;;;;;;;;;;;;;;;;;;5048663;28;20008;-63
2023/12/22 13:30:21;;;;;;;;;;;;;;;;;;5037956;28;20399;-62
2023/12/22 13:32:48;;;;;;;;;;;;;;;;;;5047146;28;19996;-63
2023/12/22 13:35:13;;;;;;;;;;;;;;;;;;5044124;28;20262;-63
2023/12/22 13:37:39;;;;;;;;;;;;;;;;;;5042449;28;19919;-63
2023/12/22 13:40:05;;;;;;;;;;;;;;;;;;5050740;28;19917;-62
2023/12/22 13:42:31;;;;;;;;;;;;;;;;;;5045632;28;19955;-63
2023/12/22 13:44:57;;;;;;;;;;;;;;;;;;5041044;28;20007;-63
2023/12/22 13:47:23;;;;;;;;;;;;;;;;;;5043744;28;19952;-63
2023/12/22 13:49:49;;;;;;;;;;;;;;;;;;5048298;28;19960;-63
2023/12/22 13:52:15;;;;;;;;;;;;;;;;;;5046607;28;20329;-63
2023/12/22 13:54:41;;;;;;;;;;;;;;;;;;5051106;28;20414;-63
2023/12/22 13:57:07;;;;;;;;;;;;;;;;;;5052547;28;19923;-62
2023/12/22 13:59:33;;;;;;;;;;;;;;;;;;5048326;28;19913;-63
2023/12/22 14:01:59;;;;;;;;;;;;;;;;;;5050032;28;19920;-63
2023/12/22 14:04:25;;;;;;;;;;;;;;;;;;5046150;28;19916;-63
2023/12/22 14:06:50;;;;;;;;;;;;;;;;;;5052682;28;20019;-63
2023/12/22 14:09:19;;;;;;;;;;;;;;;;;;5049988;28;19913;-62
2023/12/22 14:11:45;;;;;;;;;;;;;;;;;;5047356;28;19932;-62
2023/12/22 14:14:11;;;;;;;;;;;;;;;;;;5037870;28;19961;-63
2023/12/22 14:16:37;;;;;;;;;;;;;;;;;;5049339;28;19923;-63
2023/12/22 14:19:03;;;;;;;;;;;;;;;;;;5035734;28;19916;-63
2023/12/22 14:21:29;;;;;;;;;;;;;;;;;;5051312;28;19913;-63
2023/12/22 14:23:55;;;;;;;;;;;;;;;;;;5039945;28;20008;-63
2023/12/22 14:26:21;;;;;;;;;;;;;;;;;;5050704;28;19913;-63
2023/12/22 14:28:50;;;;;;;;;;;;;;;;;;5041813;28;19952;-63
2023/12/22 14:31:16;;;;;;;;;;;;;;;;;;5044975;28;19913;-65
2023/12/22 14:33:42;;;;;;;;;;;;;;;;;;5040723;28;20281;-65
2023/12/22 14:36:08;;;;;;;;;;;;;;;;;;5051580;28;20015;-65
2023/12/22 14:38:34;;;;;;;;;;;;;;;;;;5050528;28;19921;-66
2023/12/22 14:40:59;;;;;;;;;;;;;;;;;;5038865;28;19963;-65
2023/12/22 14:43:25;;;;;;;;;;;;;;;;;;5045925;28;19917;-65
2023/12/22 14:45:51;;;;;;;;;;;;;;;;;;5048065;28;20349;-66
2023/12/22 14:48:17;;;;;;;;;;;;;;;;;;5044287;28;19999;-65
2023/12/22 14:50:43;;;;;;;;;;;;;;;;;;5049308;28;19919;-66
2023/12/22 14:53:09;;;;;;;;;;;;;;;;;;5052538;28;20508;-65
2023/12/22 14:55:35;;;;;;;;;;;;;;;;;;5045839;28;19970;-65
2023/12/22 14:58:03;;;;;;;;;;;;;;;;;;5046128;28;19956;-65
2023/12/22 15:00:29;;;;;;;;;;;;;;;;;;5044728;28;20304;-65
2023/12/22 15:02:54;;;;;;;;;;;;;;;;;;5051098;28;19960;-65
2023/12/22 15:05:21;;;;;;;;;;;;;;;;;;5049117;28;19923;-65
2023/12/22 15:07:47;;;;;;;;;;;;;;;;;;5053156;28;19982;-66
2023/12/22 15:10:12;;;;;;;;;;;;;;;;;;5053852;28;19956;-65
2023/12/22 15:12:42;;;;;;;;;;;;;;;;;;5057441;28;20391;-65
2023/12/22 15:15:08;;;;;;;;;;;;;;;;;;5044696;28;19917;-65
2023/12/22 15:17:34;;;;;;;;;;;;;;;;;;5044268;28;20336;-65
2023/12/22 15:20:02;;;;;;;;;;;;;;;;;;5047699;28;20392;-65
2023/12/22 15:22:28;;;;;;;;;;;;;;;;;;5046255;28;19913;-65
2023/12/22 15:24:54;;;;;;;;;;;;;;;;;;5050796;28;19966;-65
2023/12/22 15:27:20;;;;;;;;;;;;;;;;;;5046496;28;19917;-65
2023/12/22 15:29:47;;;;;;;;;;;;;;;;;;5049269;28;20442;-64
2023/12/22 15:32:13;;;;;;;;;;;;;;;;;;5042448;28;20412;-64
2023/12/22 15:34:40;;;;;;;;;;;;;;;;;;5033565;28;19965;-64
2023/12/22 15:37:06;;;;;;;;;;;;;;;;;;5049948;28;20003;-64
2023/12/22 15:39:31;;;;;;;;;;;;;;;;;;5048275;28;20032;-63
2023/12/22 15:41:57;;;;;;;;;;;;;;;;;;5050583;28;19928;-63
2023/12/22 15:44:23;;;;;;;;;;;;;;;;;;5049937;28;20004;-63
2023/12/22 15:46:49;;;;;;;;;;;;;;;;;;5045833;28;19916;-63
2023/12/22 15:49:15;;;;;;;;;;;;;;;;;;5048098;28;19959;-63
2023/12/22 15:51:41;;;;;;;;;;;;;;;;;;5047819;28;19921;-62
2023/12/22 15:54:07;;;;;;;;;;;;;;;;;;5047451;28;20465;-63
2023/12/22 15:56:33;;;;;;;;;;;;;;;;;;5052035;28;19912;-62
2023/12/22 15:58:59;;;;;;;;;;;;;;;;;;5046637;28;20289;-63
2023/12/22 16:01:25;;;;;;;;;;;;;;;;;;5044766;28;19947;-63
2023/12/22 16:03:51;;;;;;;;;;;;;;;;;;5042720;28;19968;-63
2023/12/22 16:06:17;;;;;;;;;;;;;;;;;;5047425;28;19949;-63
2023/12/22 16:08:43;;;;;;;;;;;;;;;;;;5045694;28;19909;-63
2023/12/22 16:11:09;;;;;;;;;;;;;;;;;;5035601;28;19943;-63
2023/12/22 16:13:35;;;;;;;;;;;;;;;;;;5043880;28;20627;-63
2023/12/22 16:16:00;;;;;;;;;;;;;;;;;;5044238;28;19983;-63
2023/12/22 16:18:26;;;;;;;;;;;;;;;;;;5046392;28;20004;-67
2023/12/22 16:20:52;;;;;;;;;;;;;;;;;;5046620;28;20031;-63
2023/12/22 16:23:26;;;;;;;;;;;;;;;;;;5045329;28;21695;-63
2023/12/22 16:25:52;;;;;;;;;;;;;;;;;;5050294;28;19913;-64
2023/12/22 16:28:18;;;;;;;;;;;;;;;;;;5048096;28;19995;-63
2023/12/22 16:30:44;;;;;;;;;;;;;;;;;;5045303;28;19913;-63
2023/12/22 16:33:10;;;;;;;;;;;;;;;;;;5047725;28;19951;-63
2023/12/22 16:35:36;;;;;;;;;;;;;;;;;;5051134;28;19917;-63
2023/12/22 16:38:03;;;;;;;;;;;;;;;;;;5049939;28;20373;-63